createdAt,value
2019-05-18T00:00:59.904Z,15.30
2019-05-18T00:05:05.476Z,14.80
2019-05-18T00:09:10.281Z,14.90
2019-05-18T00:13:15.188Z,14.80
2019-05-18T00:17:25.331Z,14.40
2019-05-18T00:21:26.668Z,14.50
2019-05-18T00:25:31.572Z,14.60
2019-05-18T00:29:36.390Z,14.60
2019-05-18T00:33:42.459Z,14.60
2019-05-18T00:37:47.188Z,14.10
2019-05-18T00:41:51.988Z,13.40
2019-05-18T00:45:56.751Z,13.00
2019-05-18T00:50:01.545Z,12.70
2019-05-18T00:54:07.606Z,12.60
2019-05-18T00:58:12.456Z,12.60
2019-05-18T01:02:17.335Z,12.80
2019-05-18T01:06:23.313Z,12.90
2019-05-18T01:10:28.209Z,13.00
2019-05-18T01:14:33.111Z,13.20
2019-05-18T01:18:37.980Z,13.40
2019-05-18T01:22:42.856Z,13.60
2019-05-18T01:26:48.810Z,13.50
2019-05-18T01:30:53.679Z,12.90
2019-05-18T01:34:58.514Z,12.90
2019-05-18T01:39:05.387Z,13.10
2019-05-18T01:43:10.267Z,13.30
2019-05-18T01:47:15.092Z,12.90
2019-05-18T01:51:19.972Z,12.50
2019-05-18T01:55:24.795Z,12.60
2019-05-18T01:59:29.504Z,12.60
2019-05-18T02:03:34.391Z,12.80
2019-05-18T02:07:39.198Z,12.90
2019-05-18T02:11:43.928Z,13.10
2019-05-18T02:15:48.821Z,13.00
2019-05-18T02:19:53.531Z,13.00
2019-05-18T02:23:58.376Z,13.10
2019-05-18T02:28:03.438Z,12.90
2019-05-18T02:32:08.312Z,12.20
2019-05-18T02:36:13.131Z,11.60
2019-05-18T02:40:18.017Z,11.40
2019-05-18T02:44:22.886Z,11.40
2019-05-18T02:48:27.772Z,11.60
2019-05-18T02:52:32.651Z,11.80
2019-05-18T02:56:37.941Z,11.80
2019-05-18T03:00:42.828Z,11.80
2019-05-18T03:04:47.698Z,12.00
2019-05-18T03:08:52.654Z,12.10
2019-05-18T03:12:57.506Z,12.30
2019-05-18T03:17:02.389Z,12.20
2019-05-18T03:21:07.191Z,12.30
2019-05-18T03:25:13.830Z,11.80
2019-05-18T03:29:18.561Z,11.50
2019-05-18T03:33:28.927Z,11.40
2019-05-18T03:37:29.859Z,11.60
2019-05-18T03:41:34.750Z,11.30
2019-05-18T03:45:39.594Z,11.40
2019-05-18T03:49:44.443Z,11.50
2019-05-18T03:53:49.257Z,11.70
2019-05-18T03:57:54.313Z,11.90
2019-05-18T04:01:59.123Z,11.90
2019-05-18T04:06:03.905Z,12.00
2019-05-18T04:10:09.164Z,11.90
2019-05-18T04:14:14.051Z,11.60
2019-05-18T04:18:18.920Z,11.40
2019-05-18T04:22:23.726Z,11.10
2019-05-18T04:26:28.529Z,11.10
2019-05-18T04:30:33.393Z,10.90
2019-05-18T04:34:39.452Z,10.90
2019-05-18T04:38:44.395Z,11.10
2019-05-18T04:42:49.220Z,11.20
2019-05-18T04:46:54.143Z,11.40
2019-05-18T04:50:58.925Z,11.50
2019-05-18T04:55:04.017Z,11.70
2019-05-18T04:59:08.820Z,11.50
2019-05-18T05:03:13.630Z,11.50
2019-05-18T05:07:18.365Z,11.60
2019-05-18T05:11:23.087Z,11.60
2019-05-18T05:15:27.904Z,11.60
2019-05-18T05:19:32.694Z,11.60
2019-05-18T05:23:37.502Z,11.60
2019-05-18T05:27:42.314Z,11.70
2019-05-18T05:31:47.126Z,11.70
2019-05-18T05:35:51.941Z,12.00
2019-05-18T05:39:56.753Z,12.20
2019-05-18T05:44:01.664Z,12.10
2019-05-18T05:48:06.543Z,12.30
2019-05-18T05:52:11.340Z,12.70
2019-05-18T05:56:16.145Z,12.70
2019-05-18T06:00:21.012Z,12.90
2019-05-18T06:04:25.843Z,12.90
2019-05-18T06:08:30.654Z,13.20
2019-05-18T06:12:35.458Z,13.10
2019-05-18T06:16:40.268Z,13.20
2019-05-18T06:20:51.528Z,13.30
2019-05-18T06:24:51.516Z,13.20
2019-05-18T06:28:57.386Z,13.20
2019-05-18T06:33:02.126Z,13.30
2019-05-18T06:37:06.884Z,13.40
2019-05-18T06:41:11.690Z,13.80
2019-05-18T06:45:16.911Z,14.10
2019-05-18T06:49:21.729Z,14.10
2019-05-18T06:53:28.639Z,14.10
2019-05-18T06:57:34.734Z,14.10
2019-05-18T07:01:39.742Z,14.00
2019-05-18T07:05:44.484Z,14.40
2019-05-18T07:09:49.290Z,14.50
2019-05-18T07:13:54.136Z,14.60
2019-05-18T07:17:58.935Z,14.50
2019-05-18T07:22:03.808Z,14.60
2019-05-18T07:26:08.730Z,14.90
2019-05-18T07:30:14.331Z,15.00
2019-05-18T07:34:19.219Z,15.40
2019-05-18T07:38:24.004Z,15.70
2019-05-18T07:42:28.880Z,15.80
2019-05-18T07:46:33.716Z,15.80
2019-05-18T07:50:38.448Z,16.10
2019-05-18T07:54:43.260Z,16.20
2019-05-18T07:58:47.996Z,16.20
2019-05-18T08:02:52.823Z,16.40
2019-05-18T08:06:57.631Z,16.50
2019-05-18T08:11:02.440Z,16.60
2019-05-18T08:15:09.471Z,16.70
2019-05-18T08:19:14.288Z,16.90
2019-05-18T08:23:19.227Z,17.00
2019-05-18T08:27:23.997Z,17.10
2019-05-18T08:31:28.761Z,17.30
2019-05-18T08:35:33.649Z,17.50
2019-05-18T08:39:39.245Z,17.80
2019-05-18T08:43:44.112Z,17.50
2019-05-18T08:47:48.992Z,17.70
2019-05-18T08:52:07.491Z,17.90
2019-05-18T08:56:00.244Z,18.10
2019-05-18T09:00:05.736Z,18.30
2019-05-18T09:04:10.623Z,18.40
2019-05-18T09:08:15.434Z,18.50
2019-05-18T09:12:19.595Z,18.50
2019-05-18T09:16:24.472Z,18.70
2019-05-18T09:20:29.285Z,18.60
2019-05-18T09:24:34.113Z,18.90
2019-05-18T09:28:38.962Z,19.00
2019-05-18T09:32:43.728Z,19.10
2019-05-18T09:36:48.611Z,19.30
2019-05-18T09:40:53.359Z,19.50
2019-05-18T09:44:58.263Z,19.60
2019-05-18T09:49:03.157Z,19.80
2019-05-18T09:53:08.045Z,20.00
2019-05-18T09:57:12.892Z,20.00
2019-05-18T10:01:17.772Z,19.90
2019-05-18T10:05:22.599Z,20.20
2019-05-18T10:09:33.010Z,20.60
2019-05-18T10:13:34.127Z,20.50
2019-05-18T10:17:39.016Z,20.40
2019-05-18T10:21:43.940Z,20.30
2019-05-18T10:25:48.895Z,20.60
2019-05-18T10:29:53.977Z,20.70
2019-05-18T10:33:58.788Z,20.90
2019-05-18T10:38:03.596Z,20.80
2019-05-18T10:42:08.488Z,20.80
2019-05-18T10:46:13.337Z,21.00
2019-05-18T10:50:18.208Z,21.20
2019-05-18T10:54:23.034Z,21.50
2019-05-18T10:58:27.920Z,21.70
2019-05-18T11:02:32.898Z,21.90
2019-05-18T11:06:37.841Z,21.80
2019-05-18T11:10:42.720Z,22.00
2019-05-18T11:14:48.494Z,22.10
2019-05-18T11:18:53.599Z,22.20
2019-05-18T11:22:58.507Z,22.00
2019-05-18T11:27:03.485Z,22.00
2019-05-18T11:31:08.361Z,22.10
2019-05-18T11:35:13.964Z,22.20
2019-05-18T11:39:18.777Z,22.50
2019-05-18T11:43:23.677Z,22.60
2019-05-18T11:47:28.591Z,22.70
2019-05-18T11:51:33.450Z,22.90
2019-05-18T11:55:38.383Z,23.30
2019-05-18T11:59:43.257Z,23.60
2019-05-18T12:03:47.996Z,23.70
2019-05-18T12:07:52.881Z,24.00
2019-05-18T12:11:57.750Z,24.40
2019-05-18T12:16:02.645Z,24.50
2019-05-18T12:20:09.407Z,24.50
2019-05-18T12:24:15.967Z,24.70
2019-05-18T12:28:20.716Z,24.80
2019-05-18T12:32:25.536Z,24.90
2019-05-18T12:36:30.259Z,24.80
2019-05-18T12:40:35.131Z,25.20
2019-05-18T12:44:39.989Z,25.40
2019-05-18T12:48:44.826Z,25.10
2019-05-18T12:52:49.887Z,25.00
2019-05-18T12:56:54.770Z,25.20
2019-05-18T13:00:59.579Z,25.40
2019-05-18T13:05:04.780Z,25.70
2019-05-18T13:09:09.981Z,25.80
2019-05-18T13:13:15.211Z,25.70
2019-05-18T13:17:21.334Z,26.00
2019-05-18T13:21:26.448Z,25.80
2019-05-18T13:25:31.356Z,26.00
2019-05-18T13:29:36.167Z,26.20
2019-05-18T13:33:40.889Z,26.70
2019-05-18T13:37:45.768Z,26.80
2019-05-18T13:41:50.681Z,26.80
2019-05-18T13:45:55.604Z,26.70
2019-05-18T13:50:00.576Z,26.80
2019-05-18T13:54:05.511Z,26.50
2019-05-18T13:58:10.301Z,26.70
2019-05-18T14:02:15.258Z,26.90
2019-05-18T14:06:20.276Z,27.00
2019-05-18T14:10:26.240Z,26.70
2019-05-18T14:14:31.142Z,26.80
2019-05-18T14:18:35.910Z,26.70
2019-05-18T14:22:40.849Z,26.80
2019-05-18T14:26:45.578Z,27.10
2019-05-18T14:30:50.341Z,27.40
2019-05-18T14:34:55.232Z,27.90
2019-05-18T14:38:59.977Z,28.20
2019-05-18T14:43:04.850Z,28.20
2019-05-18T14:47:09.932Z,28.40
2019-05-18T14:51:14.758Z,28.50
2019-05-18T14:55:32.763Z,28.70
2019-05-18T14:59:26.643Z,28.80
2019-05-18T15:03:31.517Z,28.80
2019-05-18T15:07:37.605Z,29.30
2019-05-18T15:11:42.494Z,29.30
2019-05-18T15:15:47.365Z,29.20
2019-05-18T15:19:52.262Z,29.60
2019-05-18T15:23:57.094Z,29.40
2019-05-18T15:28:01.822Z,29.70
2019-05-18T15:32:06.828Z,30.50
2019-05-18T15:36:11.716Z,31.70
2019-05-18T15:40:16.609Z,33.10
2019-05-18T15:44:21.499Z,34.60
2019-05-18T15:48:26.323Z,35.40
2019-05-18T15:52:31.191Z,36.40
2019-05-18T15:56:35.993Z,36.90
2019-05-18T16:00:40.788Z,37.10
2019-05-18T16:04:45.599Z,37.00
2019-05-18T16:08:50.477Z,36.70
2019-05-18T16:12:55.201Z,35.90
2019-05-18T16:17:00.027Z,35.80
2019-05-18T16:21:04.912Z,36.90
2019-05-18T16:25:10.293Z,38.80
2019-05-18T16:29:15.093Z,39.50
2019-05-18T16:33:20.264Z,40.40
2019-05-18T16:37:25.344Z,40.80
2019-05-18T16:41:30.163Z,40.50
2019-05-18T16:45:36.034Z,40.40
2019-05-18T16:49:40.847Z,39.60
2019-05-18T16:53:49.467Z,38.00
2019-05-18T16:57:52.207Z,36.60
2019-05-18T17:01:57.084Z,35.10
2019-05-18T17:06:02.142Z,33.70
2019-05-18T17:10:08.648Z,33.00
2019-05-18T17:14:13.393Z,32.60
2019-05-18T17:18:18.293Z,31.90
2019-05-18T17:22:23.211Z,31.30
2019-05-18T17:26:28.041Z,30.90
2019-05-18T17:30:32.888Z,30.40
2019-05-18T17:34:37.720Z,30.10
2019-05-18T17:38:42.674Z,30.10
2019-05-18T17:42:47.545Z,29.60
2019-05-18T17:46:52.389Z,29.00
2019-05-18T17:50:57.175Z,28.40
2019-05-18T17:55:03.051Z,28.10
2019-05-18T17:59:07.797Z,27.60
2019-05-18T18:03:12.696Z,27.30
2019-05-18T18:07:17.576Z,26.90
2019-05-18T18:11:22.397Z,26.60
2019-05-18T18:15:28.269Z,26.30
2019-05-18T18:19:33.106Z,25.90
2019-05-18T18:23:37.870Z,25.60
2019-05-18T18:27:42.600Z,25.40
2019-05-18T18:31:47.404Z,25.20
2019-05-18T18:35:52.288Z,24.70
2019-05-18T18:39:57.096Z,24.60
2019-05-18T18:44:01.859Z,24.50
2019-05-18T18:48:06.755Z,24.40
2019-05-18T18:52:11.729Z,24.20
2019-05-18T18:56:16.589Z,24.00
2019-05-18T19:00:21.514Z,23.70
2019-05-18T19:04:26.414Z,23.50
2019-05-18T19:08:31.229Z,23.20
2019-05-18T19:12:36.738Z,23.00
2019-05-18T19:16:41.697Z,22.80
2019-05-18T19:20:46.804Z,22.60
2019-05-18T19:24:51.662Z,22.40
2019-05-18T19:28:56.505Z,22.30
2019-05-18T19:33:01.276Z,22.20
2019-05-18T19:37:06.082Z,22.10
2019-05-18T19:41:10.881Z,22.10
2019-05-18T19:45:16.393Z,21.90
2019-05-18T19:49:21.156Z,21.30
2019-05-18T19:53:26.032Z,21.30
2019-05-18T19:57:30.775Z,21.20
2019-05-18T20:01:35.712Z,21.20
2019-05-18T20:05:40.543Z,21.10
2019-05-18T20:09:45.348Z,21.00
2019-05-18T20:13:50.240Z,20.90
2019-05-18T20:17:56.221Z,20.40
2019-05-18T20:22:00.949Z,20.10
2019-05-18T20:26:05.870Z,20.10
2019-05-18T20:30:11.476Z,20.20
2019-05-18T20:34:16.361Z,20.30
2019-05-18T20:38:21.185Z,20.10
2019-05-18T20:42:25.980Z,19.50
2019-05-18T20:46:30.881Z,19.50
2019-05-18T20:50:35.788Z,19.70
2019-05-18T20:54:40.616Z,19.80
2019-05-18T20:58:45.497Z,19.90
2019-05-18T21:02:50.428Z,19.80
2019-05-18T21:06:55.362Z,19.30
2019-05-18T21:11:00.174Z,19.10
2019-05-18T21:15:05.945Z,19.20
2019-05-18T21:19:10.808Z,19.30
2019-05-18T21:23:15.604Z,19.40
2019-05-18T21:27:20.380Z,19.50
2019-05-18T21:31:25.131Z,19.60
2019-05-18T21:35:30.037Z,19.60
2019-05-18T21:39:39.280Z,19.50
2019-05-18T21:43:46.748Z,19.40
2019-05-18T21:47:53.241Z,19.40
2019-05-18T21:51:58.129Z,19.50
2019-05-18T21:56:02.992Z,19.50
2019-05-18T22:00:08.802Z,19.30
2019-05-18T22:04:15.334Z,19.30
2019-05-18T22:08:20.118Z,19.30
2019-05-18T22:12:24.866Z,19.10
2019-05-18T22:16:29.700Z,18.90
2019-05-18T22:20:35.324Z,18.70
2019-05-18T22:24:40.599Z,18.50
2019-05-18T22:28:45.469Z,18.50
2019-05-18T22:32:50.363Z,18.30
2019-05-18T22:36:55.897Z,18.20
2019-05-18T22:41:00.710Z,18.10
2019-05-18T22:45:05.661Z,18.00
2019-05-18T22:49:10.568Z,17.90
2019-05-18T22:53:15.467Z,17.80
2019-05-18T22:57:20.225Z,17.70
2019-05-18T23:01:25.100Z,17.60
2019-05-18T23:05:30.231Z,17.40
2019-05-18T23:09:34.945Z,17.20
2019-05-18T23:13:39.772Z,17.20
2019-05-18T23:17:44.532Z,17.10
2019-05-18T23:21:49.348Z,17.00
2019-05-18T23:25:54.286Z,16.90
2019-05-18T23:29:59.124Z,16.80
2019-05-18T23:34:04.338Z,16.70
2019-05-18T23:38:09.278Z,16.70
2019-05-18T23:42:14.232Z,16.20
2019-05-18T23:46:19.171Z,15.90
2019-05-18T23:50:24.127Z,15.90
2019-05-18T23:54:29.029Z,15.90
2019-05-18T23:58:33.931Z,15.90
